Time;durP1;ratioP1;P1;durP2;ratioP2;P2;SDS_P1;SDS_P2;PMS_P1;PMS_P2;Temp;Humidity;BMP_temperature;BMP_pressure;BME280_temperature;BME280_humidity;BME280_pressure;Samples;Min_cycle;Max_cycle;Signal;HPM_P1;HPM_P2
2023/12/10 00:01:17;;;;;;;16.58;3.53;;;;;;;6.42;92.21;99476.13;5048003;28;20064;-51
2023/12/10 00:03:45;;;;;;;14.75;4.57;;;;;;;6.42;92.30;99467.88;5044867;28;20041;-51
2023/12/10 00:06:12;;;;;;;10.27;2.72;;;;;;;6.41;92.58;99471.75;5054085;28;20049;-49
2023/12/10 00:08:43;;;;;;;22.92;4.55;;;;;;;6.39;92.67;99462.25;5049975;28;20041;-53
2023/12/10 00:11:11;;;;;;;14.25;3.17;;;;;;;6.38;92.67;99464.19;5046902;28;20057;-50
2023/12/10 00:13:39;;;;;;;14.27;3.42;;;;;;;6.38;92.82;99455.97;5046799;28;20755;-51
2023/12/10 00:16:08;;;;;;;16.02;3.15;;;;;;;6.38;93.02;99453.22;5028214;28;20053;-54
2023/12/10 00:18:36;;;;;;;17.80;3.58;;;;;;;6.38;93.18;99461.47;5046468;28;20045;-48
2023/12/10 00:21:03;;;;;;;11.70;3.10;;;;;;;6.39;93.11;99446.56;5046610;28;20434;-50
2023/12/10 00:23:31;;;;;;;22.10;2.92;;;;;;;6.40;93.55;99444.63;5046670;28;20053;-52
2023/12/10 00:25:58;;;;;;;16.25;4.85;;;;;;;6.39;93.49;99462.25;5028470;28;20203;-50
2023/12/10 00:28:26;;;;;;;15.52;3.08;;;;;;;6.37;93.69;99465.38;5044136;28;20040;-52
2023/12/10 00:30:53;;;;;;;24.95;4.28;;;;;;;6.38;93.78;99460.69;5046446;28;20060;-49
2023/12/10 00:33:20;;;;;;;17.52;2.95;;;;;;;6.36;94.08;99469.25;5046330;28;20049;-50
2023/12/10 00:35:48;;;;;;;24.83;4.60;;;;;;;6.38;94.38;99486.19;5046700;28;20111;-52
2023/12/10 00:38:15;;;;;;;18.08;3.65;;;;;;;6.38;94.46;99483.44;5045964;28;20048;-52
2023/12/10 00:40:46;;;;;;;8.98;3.05;;;;;;;6.39;94.53;99489.75;5045705;28;20037;-51
2023/12/10 00:43:14;;;;;;;17.20;3.92;;;;;;;6.40;94.90;99505.91;5046203;28;20052;-47
2023/12/10 00:45:41;;;;;;;13.50;2.75;;;;;;;6.40;94.71;99492.16;5042908;28;20053;-52
2023/12/10 00:48:10;;;;;;;15.10;2.45;;;;;;;6.41;94.75;99490.19;5046654;28;20479;-53
2023/12/10 00:50:37;;;;;;;12.35;2.95;;;;;;;6.41;95.13;99477.25;5046894;28;20052;-53
2023/12/10 00:53:05;;;;;;;23.98;3.65;;;;;;;6.42;95.15;99487.13;5050960;28;20402;-53
2023/12/10 00:55:32;;;;;;;18.35;2.70;;;;;;;6.42;95.25;99492.63;5049964;28;20056;-49
2023/12/10 00:58:00;;;;;;;13.98;3.95;;;;;;;6.42;95.37;99489.88;5042085;28;20418;-52
2023/12/10 01:00:27;;;;;;;16.73;3.38;;;;;;;6.40;95.42;99494.91;5047592;28;20045;-51
2023/12/10 01:02:56;;;;;;;13.50;2.33;;;;;;;6.40;95.43;99500.41;5050048;28;20053;-54
2023/12/10 01:05:23;;;;;;;14.38;2.88;;;;;;;6.40;95.50;99514.16;5050633;28;20045;-50
2023/12/10 01:07:51;;;;;;;17.52;3.17;;;;;;;6.40;95.68;99513.34;5051565;28;20814;-49
2023/12/10 01:10:19;;;;;;;11.13;3.83;;;;;;;6.38;95.52;99519.19;5048935;28;20029;-54
2023/12/10 01:12:46;;;;;;;13.93;3.28;;;;;;;6.40;95.66;99522.41;5050246;28;20052;-50
2023/12/10 01:15:14;;;;;;;20.15;3.08;;;;;;;6.38;96.09;99535.69;5049614;28;20048;-53
2023/12/10 01:17:41;;;;;;;11.32;2.53;;;;;;;6.36;96.06;99540.72;5049858;28;20041;-51
2023/12/10 01:20:09;;;;;;;16.45;2.70;;;;;;;6.37;96.21;99550.59;5049885;28;20041;-50
2023/12/10 01:22:37;;;;;;;5.47;2.28;;;;;;;6.38;96.41;99554.13;5049984;28;20910;-48
2023/12/10 01:25:05;;;;;;;13.93;2.47;;;;;;;6.37;96.27;99550.59;5049582;28;20403;-52
2023/12/10 01:27:32;;;;;;;19.85;4.63;;;;;;;6.38;96.27;99559.63;5049503;28;20514;-54
2023/12/10 01:29:59;;;;;;;15.30;2.33;;;;;;;6.36;96.59;99553.66;5048958;28;20052;-48
2023/12/10 01:32:27;;;;;;;9.07;1.80;;;;;;;6.35;96.54;99571.31;5049530;28;20052;-51
2023/12/10 01:34:55;;;;;;;14.93;2.20;;;;;;;6.37;96.78;99575.31;5049570;28;20045;-52
2023/12/10 01:37:23;;;;;;;15.57;2.40;;;;;;;6.39;96.92;99584.03;5049174;28;20059;-53
2023/12/10 01:39:50;;;;;;;11.98;2.10;;;;;;;6.41;96.78;99586.41;5036494;28;20048;-52
2023/12/10 01:42:17;;;;;;;12.13;1.83;;;;;;;6.42;96.75;99591.59;5049107;28;20052;-49
2023/12/10 01:44:45;;;;;;;12.43;2.33;;;;;;;6.42;96.87;99602.56;5036369;28;20674;-50
2023/12/10 01:47:14;;;;;;;16.33;2.45;;;;;;;6.42;97.05;99599.81;5029284;28;20045;-51
2023/12/10 01:49:41;;;;;;;10.02;1.88;;;;;;;6.42;97.21;99593.53;5048904;28;20053;-53
2023/12/10 01:52:14;;;;;;;8.43;1.80;;;;;;;6.42;97.24;99604.53;5031509;28;20450;-54
2023/12/10 01:54:41;;;;;;;10.57;1.90;;;;;;;6.43;97.14;99601.44;5050954;28;20155;-52
2023/12/10 01:57:09;;;;;;;9.50;1.67;;;;;;;6.43;97.30;99606.13;5046249;28;20038;-52
2023/12/10 01:59:37;;;;;;;8.07;2.22;;;;;;;6.44;97.44;99594.78;5030139;28;20045;-50
2023/12/10 02:02:05;;;;;;;12.40;2.35;;;;;;;6.44;97.47;99599.47;5048070;28;20076;-50
2023/12/10 02:04:35;;;;;;;9.82;1.55;;;;;;;6.44;97.66;99583.78;5049401;28;20445;-54
2023/12/10 02:07:02;;;;;;;11.13;1.98;;;;;;;6.45;97.65;99581.84;5054103;28;20542;-48
2023/12/10 02:09:30;;;;;;;8.20;2.40;;;;;;;6.43;97.52;99573.94;5047611;28;20045;-50
2023/12/10 02:11:57;;;;;;;7.35;2.00;;;;;;;6.44;97.80;99578.28;5048235;28;20045;-52
2023/12/10 02:14:24;;;;;;;8.90;2.80;;;;;;;6.46;97.66;99580.72;5049165;28;20061;-49
2023/12/10 02:16:52;;;;;;;16.02;2.65;;;;;;;6.47;97.92;99569.34;5047984;28;20521;-50
2023/12/10 02:19:19;;;;;;;11.40;3.00;;;;;;;6.46;97.77;99573.22;5029728;28;20053;-51
2023/12/10 02:21:50;;;;;;;11.88;2.15;;;;;;;6.46;97.80;99569.72;5047711;28;20045;-52
2023/12/10 02:24:25;;;;;;;11.95;2.00;;;;;;;6.47;98.07;99572.09;5040736;28;20399;-48
2023/12/10 02:26:53;;;;;;;15.63;2.15;;;;;;;6.47;98.28;99558.34;5048573;28;20044;-50
2023/12/10 02:29:21;;;;;;;13.18;1.75;;;;;;;6.48;97.99;99543.47;5048015;28;20525;-52
2023/12/10 02:31:48;;;;;;;12.00;2.05;;;;;;;6.49;98.29;99539.56;5047981;28;20049;-53
2023/12/10 02:34:16;;;;;;;14.65;2.25;;;;;;;6.49;98.28;99547.81;5026859;28;20045;-50
2023/12/10 02:36:43;;;;;;;22.65;3.70;;;;;;;6.49;98.19;99544.25;5048532;28;20037;-51
2023/12/10 02:39:10;;;;;;;16.85;2.65;;;;;;;6.50;98.47;99535.66;5046956;28;20041;-51
2023/12/10 02:41:38;;;;;;;9.27;1.83;;;;;;;6.51;98.73;99537.25;5047844;28;20045;-51
2023/12/10 02:44:05;;;;;;;14.90;2.83;;;;;;;6.52;98.66;99525.13;5048209;28;20045;-54
2023/12/10 02:46:33;;;;;;;7.30;2.10;;;;;;;6.53;98.60;99523.16;5043473;28;20376;-52
2023/12/10 02:49:00;;;;;;;10.88;2.85;;;;;;;6.53;98.94;99523.16;5047470;28;20041;-49
2023/12/10 02:51:28;;;;;;;10.90;2.13;;;;;;;6.52;98.95;99516.88;5047481;28;20048;-52
2023/12/10 02:53:55;;;;;;;17.23;2.70;;;;;;;6.54;98.88;99519.28;5030959;28;20075;-50
2023/12/10 02:56:23;;;;;;;14.02;1.95;;;;;;;6.55;98.98;99526.38;5013099;28;20044;-52
2023/12/10 02:58:50;;;;;;;17.13;2.97;;;;;;;6.55;99.00;99524.44;5046744;28;20052;-51
2023/12/10 03:01:17;;;;;;;14.63;2.92;;;;;;;6.56;98.77;99528.78;5117883;22;20060;-52
2023/12/10 03:03:45;;;;;;;17.60;3.45;;;;;;;6.56;99.11;99548.03;5048260;28;20099;-52
2023/12/10 03:06:12;;;;;;;18.00;2.30;;;;;;;6.57;99.21;99546.06;5051385;28;20053;-52
2023/12/10 03:08:40;;;;;;;13.98;3.03;;;;;;;6.56;99.20;99550.78;5043651;28;20049;-54
2023/12/10 03:11:09;;;;;;;11.85;1.90;;;;;;;6.56;99.13;99549.97;5039127;28;20053;-54
2023/12/10 03:13:36;;;;;;;15.18;2.88;;;;;;;6.55;99.37;99549.16;5047408;28;20072;-53
2023/12/10 03:16:04;;;;;;;8.10;1.95;;;;;;;6.55;99.12;99549.16;5047975;28;20387;-54
2023/12/10 03:18:32;;;;;;;14.00;2.75;;;;;;;6.55;99.58;99535.41;5042925;28;20060;-52
2023/12/10 03:21:00;;;;;;;16.92;2.55;;;;;;;6.53;99.49;99523.97;5047514;28;20502;-49
2023/12/10 03:23:27;;;;;;;11.35;2.58;;;;;;;6.53;99.79;99512.97;5046847;28;20457;-54
2023/12/10 03:25:55;;;;;;;7.13;2.63;;;;;;;6.51;99.70;99523.50;5047681;28;20045;-53
2023/12/10 03:28:22;;;;;;;15.00;2.40;;;;;;;6.50;100.00;99519.16;5047722;28;20045;-53
2023/12/10 03:30:49;;;;;;;19.67;3.28;;;;;;;6.49;100.00;99501.06;5047156;28;20052;-52
2023/12/10 03:33:17;;;;;;;19.63;2.78;;;;;;;6.48;100.00;99482.97;5047267;28;20041;-54
2023/12/10 03:35:45;;;;;;;13.73;2.65;;;;;;;6.48;100.00;99482.97;5047673;28;20047;-53
2023/12/10 03:38:12;;;;;;;15.55;4.03;;;;;;;6.49;100.00;99472.75;5047064;28;20037;-55
2023/12/10 03:40:39;;;;;;;11.07;2.50;;;;;;;6.48;100.00;99461.00;5046529;28;20415;-52
2023/12/10 03:43:07;;;;;;;15.30;2.95;;;;;;;6.51;100.00;99460.25;5047594;28;20037;-52
2023/12/10 03:45:34;;;;;;;14.80;3.03;;;;;;;6.53;100.00;99452.50;5048092;28;20048;-54
2023/12/10 03:48:02;;;;;;;12.07;2.08;;;;;;;6.54;100.00;99443.06;5048391;28;20056;-53
2023/12/10 03:50:29;;;;;;;11.55;3.80;;;;;;;6.55;100.00;99428.19;5047233;28;20053;-53
2023/12/10 03:52:57;;;;;;;19.17;3.45;;;;;;;6.58;100.00;99415.69;5032478;28;20067;-53
2023/12/10 03:55:24;;;;;;;13.90;4.30;;;;;;;6.59;100.00;99420.81;5047666;28;20052;-54
2023/12/10 03:57:52;;;;;;;6.95;1.92;;;;;;;6.62;100.00;99416.56;5047955;28;20052;-55
2023/12/10 04:00:19;;;;;;;10.75;2.00;;;;;;;6.64;100.00;99417.84;5047750;28;20041;-53
2023/12/10 04:02:47;;;;;;;11.77;2.97;;;;;;;6.66;100.00;99406.47;5047536;28;20057;-54
2023/12/10 04:05:14;;;;;;;16.05;2.47;;;;;;;6.68;100.00;99404.97;5047287;28;20045;-53
2023/12/10 04:07:42;;;;;;;16.00;4.07;;;;;;;6.67;100.00;99392.38;5040273;28;20056;-53
2023/12/10 04:10:09;;;;;;;20.73;3.10;;;;;;;6.71;100.00;99381.47;5047878;28;20410;-52
2023/12/10 04:12:37;;;;;;;14.77;3.63;;;;;;;6.72;100.00;99383.84;5037798;28;20050;-54
2023/12/10 04:15:06;;;;;;;14.02;2.63;;;;;;;6.75;100.00;99388.66;5045443;28;20049;-53
2023/12/10 04:17:33;;;;;;;11.90;1.95;;;;;;;6.78;100.00;99394.63;5047237;28;20037;-54
2023/12/10 04:20:01;;;;;;;12.95;3.20;;;;;;;6.78;100.00;99389.13;5046355;28;20391;-55
2023/12/10 04:22:28;;;;;;;13.48;2.47;;;;;;;6.79;100.00;99390.72;5046531;28;20313;-50
2023/12/10 04:24:56;;;;;;;23.42;3.05;;;;;;;6.81;100.00;99385.63;5046139;28;20052;-53
2023/12/10 04:27:24;;;;;;;14.70;3.92;;;;;;;6.81;100.00;99380.13;5046865;28;20064;-55
2023/12/10 04:29:52;;;;;;;13.18;2.28;;;;;;;6.83;100.00;99366.84;5038290;28;20048;-55
2023/12/10 04:32:20;;;;;;;19.33;2.58;;;;;;;6.85;100.00;99359.84;5047400;28;20059;-55
2023/12/10 04:34:47;;;;;;;24.60;3.00;;;;;;;6.86;100.00;99344.91;5047184;28;20052;-55
2023/12/10 04:37:15;;;;;;;13.50;3.47;;;;;;;6.89;100.00;99321.41;5050712;28;20772;-53
2023/12/10 04:39:42;;;;;;;19.30;3.97;;;;;;;6.90;100.00;99321.06;5050320;28;20041;-48
2023/12/10 04:42:10;;;;;;;12.25;2.17;;;;;;;6.93;100.00;99316.81;5050593;28;20045;-51
2023/12/10 04:44:37;;;;;;;23.30;4.97;;;;;;;6.93;100.00;99309.34;5049967;28;20450;-53
2023/12/10 04:47:05;;;;;;;16.30;3.33;;;;;;;6.93;100.00;99301.09;5050031;28;20037;-53
2023/12/10 04:49:32;;;;;;;13.25;2.80;;;;;;;6.94;100.00;99291.66;5045377;28;20056;-53
2023/12/10 04:52:00;;;;;;;9.57;2.40;;;;;;;6.95;100.00;99240.22;5043856;28;20056;-58
2023/12/10 04:54:28;;;;;;;16.67;2.90;;;;;;;6.96;100.00;99228.06;5048839;28;20044;-53
2023/12/10 04:56:55;;;;;;;13.93;2.90;;;;;;;6.96;100.00;99250.88;5049801;28;20041;-54
2023/12/10 04:59:22;;;;;;;10.18;2.55;;;;;;;6.98;100.00;99289.03;5049411;28;20414;-54
2023/12/10 05:01:50;;;;;;;13.73;4.63;;;;;;;6.98;100.00;99280.75;5049518;28;20068;-53
2023/12/10 05:04:18;;;;;;;22.17;3.03;;;;;;;6.99;100.00;99282.38;5050128;28;20381;-54
2023/12/10 05:06:45;;;;;;;13.57;2.50;;;;;;;6.99;100.00;99276.88;5059686;28;20041;-55
2023/12/10 05:09:13;;;;;;;17.90;2.63;;;;;;;7.00;100.00;99265.50;5039910;28;20052;-54
2023/12/10 05:11:40;;;;;;;13.43;2.40;;;;;;;7.03;100.00;99270.28;5050155;28;20052;-54
2023/12/10 05:14:07;;;;;;;8.82;1.95;;;;;;;7.03;100.00;99259.28;5051477;28;20049;-53
2023/12/10 05:16:35;;;;;;;8.70;3.58;;;;;;;7.02;100.00;99238.41;5051020;28;20096;-55
2023/12/10 05:19:02;;;;;;;14.27;3.47;;;;;;;7.03;100.00;99222.72;5048247;28;20441;-54
2023/12/10 05:21:30;;;;;;;15.65;2.20;;;;;;;7.02;100.00;99216.41;5050192;28;20044;-53
2023/12/10 05:23:58;;;;;;;17.83;2.40;;;;;;;7.02;100.00;99194.38;5051014;28;20045;-54
2023/12/10 05:26:25;;;;;;;17.73;2.03;;;;;;;7.02;100.00;99188.09;5049731;28;20041;-54
2023/12/10 05:28:53;;;;;;;26.02;4.00;;;;;;;7.02;100.00;99204.59;5050752;28;20136;-54
2023/12/10 05:31:20;;;;;;;13.73;3.05;;;;;;;7.01;100.00;99230.53;5050379;28;20052;-52
2023/12/10 05:33:48;;;;;;;15.85;4.32;;;;;;;6.99;100.00;99235.59;5050196;28;20049;-51
2023/12/10 05:36:16;;;;;;;18.30;4.43;;;;;;;6.97;100.00;99237.88;5049493;28;20075;-54
2023/12/10 05:38:43;;;;;;;22.15;4.05;;;;;;;6.96;100.00;99214.31;5050096;28;20041;-54
2023/12/10 05:41:11;;;;;;;15.00;3.33;;;;;;;6.95;100.00;99205.25;5049503;28;20075;-54
2023/12/10 05:43:38;;;;;;;10.13;2.85;;;;;;;6.93;100.00;99190.25;5050039;28;20045;-52
2023/12/10 05:46:06;;;;;;;9.73;1.95;;;;;;;6.93;100.00;99179.25;5049889;28;20502;-54
2023/12/10 05:48:33;;;;;;;11.18;1.90;;;;;;;6.92;100.00;99180.41;5050068;28;20059;-55
2023/12/10 05:51:03;;;;;;;12.10;3.65;;;;;;;6.92;100.00;99177.63;5049590;28;20060;-53
2023/12/10 05:53:30;;;;;;;9.35;2.25;;;;;;;6.91;100.00;99154.06;5057273;28;20715;-54
2023/12/10 05:55:58;;;;;;;8.90;1.95;;;;;;;6.91;100.00;99138.31;5046720;28;20053;-54
2023/12/10 05:58:28;;;;;;;14.93;2.63;;;;;;;6.92;100.00;99117.13;5049338;28;20049;-56
2023/12/10 06:00:55;;;;;;;6.50;2.45;;;;;;;6.91;100.00;99121.03;5049286;28;20060;-52
2023/12/10 06:03:24;;;;;;;15.70;2.45;;;;;;;6.91;100.00;99110.81;5036393;28;20052;-56
2023/12/10 06:05:52;;;;;;;9.73;2.08;;;;;;;6.91;100.00;99126.53;5054596;28;20044;-53
2023/12/10 06:08:19;;;;;;;11.50;2.50;;;;;;;6.92;100.00;99128.94;5045950;28;20045;-54
2023/12/10 06:10:47;;;;;;;24.70;3.35;;;;;;;6.92;100.00;99122.63;5050487;28;20053;-53
2023/12/10 06:13:14;;;;;;;6.90;1.65;;;;;;;6.91;100.00;99113.56;5049605;28;20045;-56
2023/12/10 06:15:44;;;;;;;11.18;2.13;;;;;;;6.93;100.00;99094.75;5023462;28;20058;-54
2023/12/10 06:18:11;;;;;;;7.00;1.85;;;;;;;6.93;100.00;99103.03;5046879;28;20045;-54
2023/12/10 06:20:39;;;;;;;12.23;2.25;;;;;;;6.95;100.00;99110.91;5049566;28;20050;-54
2023/12/10 06:23:06;;;;;;;8.60;2.50;;;;;;;6.97;100.00;99122.34;5049514;28;20061;-54
2023/12/10 06:25:34;;;;;;;16.58;4.22;;;;;;;6.99;100.00;99100.78;5049761;28;20783;-54
2023/12/10 06:28:03;;;;;;;19.92;3.15;;;;;;;7.00;100.00;99110.63;5049425;28;20437;-52
2023/12/10 06:30:30;;;;;;;13.65;2.58;;;;;;;7.01;100.00;99098.47;5040270;28;20045;-53
2023/12/10 06:32:58;;;;;;;16.70;3.13;;;;;;;7.02;100.00;99100.03;5045940;28;20059;-53
2023/12/10 06:35:25;;;;;;;15.07;3.20;;;;;;;7.03;100.00;99046.59;5048432;28;20520;-54
2023/12/10 06:37:53;;;;;;;7.60;2.17;;;;;;;7.03;100.00;99041.09;5048825;28;20450;-52
2023/12/10 06:40:20;;;;;;;14.95;3.15;;;;;;;7.07;100.00;99026.25;5030919;28;20045;-52
2023/12/10 06:42:48;;;;;;;9.57;1.85;;;;;;;7.09;100.00;99012.94;5049157;28;20071;-53
2023/12/10 06:45:15;;;;;;;8.70;1.50;;;;;;;7.11;100.00;99029.88;5049312;28;20045;-53
2023/12/10 06:47:43;;;;;;;10.07;1.50;;;;;;;7.13;100.00;99002.00;5048895;28;20052;-52
2023/12/10 06:50:10;;;;;;;8.10;1.10;;;;;;;7.13;100.00;98990.97;5042849;28;20045;-55
2023/12/10 06:52:37;;;;;;;5.88;1.55;;;;;;;7.15;100.00;99016.16;5051122;28;20056;-52
2023/12/10 06:55:05;;;;;;;11.68;3.33;;;;;;;7.16;100.00;99017.78;5049841;28;20056;-53
2023/12/10 06:57:32;;;;;;;6.32;1.50;;;;;;;7.16;100.00;99039.78;5047247;28;20049;-51
2023/12/10 07:00:00;;;;;;;6.82;1.33;;;;;;;7.17;100.00;99042.19;5048822;28;20095;-51
2023/12/10 07:02:27;;;;;;;12.32;1.95;;;;;;;7.17;100.00;99058.72;5048492;28;20060;-53
2023/12/10 07:04:55;;;;;;;11.32;1.42;;;;;;;7.19;100.00;99022.56;5046854;28;20139;-53
2023/12/10 07:07:22;;;;;;;7.43;1.52;;;;;;;7.22;100.00;99021.84;5060509;28;20061;-51
2023/12/10 07:09:50;;;;;;;7.30;1.58;;;;;;;7.22;100.00;99005.31;5042489;28;20045;-53
2023/12/10 07:12:17;;;;;;;10.00;3.00;;;;;;;7.22;100.00;98989.59;5048632;28;20044;-53
2023/12/10 07:14:45;;;;;;;9.70;2.85;;;;;;;7.21;100.00;98954.97;5049127;28;20052;-55
2023/12/10 07:17:14;;;;;;;9.82;1.73;;;;;;;7.21;100.00;98943.16;5048904;28;20045;-50
2023/12/10 07:19:42;;;;;;;5.35;1.65;;;;;;;7.22;100.00;98958.53;5046135;28;20533;-52
2023/12/10 07:22:10;;;;;;;8.63;1.70;;;;;;;7.22;100.00;98950.28;5048411;28;20037;-49
2023/12/10 07:24:38;;;;;;;13.45;1.80;;;;;;;7.23;100.00;98955.41;5048217;28;20053;-53
2023/12/10 07:27:06;;;;;;;14.38;1.85;;;;;;;7.22;100.00;98951.06;5030855;28;20406;-52
2023/12/10 07:29:33;;;;;;;6.28;1.48;;;;;;;7.22;100.00;98933.75;5045850;28;20045;-54
2023/12/10 07:32:01;;;;;;;17.20;3.10;;;;;;;7.22;100.00;98937.31;5047759;28;20037;-53
2023/12/10 07:34:28;;;;;;;10.52;2.15;;;;;;;7.21;100.00;98940.41;5047541;28;20041;-51
2023/12/10 07:36:56;;;;;;;13.90;1.90;;;;;;;7.19;100.00;98946.31;5047909;28;20059;-52
2023/12/10 07:39:24;;;;;;;8.15;1.58;;;;;;;7.19;100.00;98956.50;5043857;28;20127;-49
2023/12/10 07:41:51;;;;;;;8.90;1.90;;;;;;;7.17;100.00;98953.34;5048605;28;20045;-52
2023/12/10 07:44:19;;;;;;;17.90;3.95;;;;;;;7.15;100.00;98950.94;5048079;28;20041;-51
2023/12/10 07:46:46;;;;;;;11.98;2.40;;;;;;;7.14;100.00;98938.34;5048364;28;20045;-51
2023/12/10 07:49:14;;;;;;;10.63;2.35;;;;;;;7.12;100.00;98926.88;5046766;28;20376;-46
2023/12/10 07:51:41;;;;;;;12.48;3.28;;;;;;;7.10;100.00;98912.72;5046847;28;20064;-50
2023/12/10 07:54:09;;;;;;;16.35;3.60;;;;;;;7.08;100.00;98905.97;5047484;28;20056;-51
2023/12/10 07:56:36;;;;;;;8.02;2.03;;;;;;;7.06;100.00;98884.34;5039181;28;20052;-49
2023/12/10 07:59:07;;;;;;;15.00;2.80;;;;;;;7.03;100.00;98865.81;5046768;28;20048;-51
2023/12/10 08:01:34;;;;;;;16.20;2.53;;;;;;;7.03;100.00;98854.00;5046071;28;20057;-49
2023/12/10 08:04:02;;;;;;;9.70;1.98;;;;;;;6.99;100.00;98853.19;5046703;28;20396;-52
2023/12/10 08:06:30;;;;;;;12.63;2.35;;;;;;;6.97;100.00;98842.53;5049350;28;20036;-51
2023/12/10 08:08:57;;;;;;;11.68;2.10;;;;;;;6.97;100.00;98859.03;5048772;28;20053;-49
2023/12/10 08:11:25;;;;;;;10.52;1.88;;;;;;;6.96;100.00;98864.91;5034820;28;20047;-51
2023/12/10 08:13:52;;;;;;;6.53;2.00;;;;;;;6.95;100.00;98846.81;5047733;28;20045;-47
2023/12/10 08:16:20;;;;;;;11.23;1.77;;;;;;;6.92;100.00;98798.03;5052378;28;20040;-47
2023/12/10 08:18:47;;;;;;;17.52;3.42;;;;;;;6.90;100.00;98751.63;5047982;28;20056;-52
2023/12/10 08:21:15;;;;;;;12.63;3.17;;;;;;;6.86;100.00;98715.00;5051950;28;20049;-51
2023/12/10 08:23:43;;;;;;;15.90;4.05;;;;;;;6.82;100.00;98680.38;5053138;28;20052;-48
2023/12/10 08:26:10;;;;;;;14.43;6.18;;;;;;;6.79;100.00;98653.63;5052429;28;20065;-52
2023/12/10 08:28:38;;;;;;;19.55;3.53;;;;;;;6.74;100.00;98640.97;5051833;28;20056;-48
2023/12/10 08:31:05;;;;;;;18.10;3.50;;;;;;;6.70;100.00;98632.69;5052967;28;20757;-50
2023/12/10 08:33:33;;;;;;;10.77;2.65;;;;;;;6.68;100.00;98623.22;5053416;28;20033;-49
2023/12/10 08:36:00;;;;;;;15.35;3.78;;;;;;;6.67;100.00;98605.16;5053191;28;20052;-48
2023/12/10 08:38:28;;;;;;;24.17;6.55;;;;;;;6.64;100.00;98608.63;5052874;28;20437;-52
2023/12/10 08:40:55;;;;;;;20.92;4.00;;;;;;;6.64;100.00;98595.69;5052495;28;20059;-54
2023/12/10 08:43:23;;;;;;;21.42;4.63;;;;;;;6.60;100.00;98578.31;5052619;28;20418;-51
2023/12/10 08:45:50;;;;;;;15.55;3.10;;;;;;;6.58;100.00;98561.41;5053148;28;20379;-52
2023/12/10 08:48:18;;;;;;;29.35;4.78;;;;;;;6.57;100.00;98550.78;5052110;28;20049;-53
2023/12/10 08:50:45;;;;;;;25.40;5.72;;;;;;;6.56;100.00;98540.97;5052494;28;20384;-50
2023/12/10 08:53:13;;;;;;;22.83;4.15;;;;;;;6.57;100.00;98531.53;5057070;28;20051;-53
2023/12/10 08:55:40;;;;;;;27.55;4.47;;;;;;;6.60;100.00;98528.03;5052260;28;20055;-50
2023/12/10 08:58:08;;;;;;;34.17;5.05;;;;;;;6.64;100.00;98532.44;5052430;28;20502;-52
2023/12/10 09:00:35;;;;;;;37.70;4.22;;;;;;;6.74;100.00;98531.78;5052359;28;20071;-50
2023/12/10 09:03:03;;;;;;;22.52;4.85;;;;;;;6.83;100.00;98522.47;5052102;28;20053;-49
2023/12/10 09:05:31;;;;;;;26.50;4.78;;;;;;;6.92;100.00;98510.00;5052223;28;20061;-52
2023/12/10 09:07:59;;;;;;;21.38;3.22;;;;;;;6.99;100.00;98485.31;5049444;28;20434;-50
2023/12/10 09:10:26;;;;;;;24.23;3.80;;;;;;;7.09;100.00;98490.16;5053139;28;20088;-51
2023/12/10 09:12:54;;;;;;;24.98;4.78;;;;;;;7.16;100.00;98473.72;5052895;28;20490;-51
2023/12/10 09:15:21;;;;;;;30.00;4.40;;;;;;;7.21;100.00;98491.84;5052942;28;20048;-55
2023/12/10 09:17:48;;;;;;;25.65;4.13;;;;;;;7.27;100.00;98488.38;5052602;28;20041;-53
2023/12/10 09:20:16;;;;;;;33.78;4.18;;;;;;;7.31;100.00;98486.44;5050661;28;20045;-52
2023/12/10 09:22:43;;;;;;;27.33;4.22;;;;;;;7.34;100.00;98479.38;5050144;28;20052;-54
2023/12/10 09:25:11;;;;;;;35.08;4.75;;;;;;;7.38;100.00;98480.22;5049652;28;20052;-53
2023/12/10 09:27:38;;;;;;;28.30;4.28;;;;;;;7.41;100.00;98468.47;5045677;28;20414;-53
2023/12/10 09:30:06;;;;;;;25.08;4.70;;;;;;;7.44;100.00;98477.91;5036489;28;20053;-53
2023/12/10 09:32:34;;;;;;;24.60;5.20;;;;;;;7.44;100.00;98473.19;5047644;28;20518;-58
2023/12/10 09:35:04;;;;;;;19.63;2.63;;;;;;;7.44;100.00;98455.91;5048109;28;20060;-53
2023/12/10 09:37:32;;;;;;;12.45;2.35;;;;;;;7.44;100.00;98451.16;5046944;28;20053;-53
2023/12/10 09:39:59;;;;;;;19.90;4.10;;;;;;;7.46;100.00;98453.56;5048094;28;20041;-52
2023/12/10 09:42:27;;;;;;;11.48;2.85;;;;;;;7.45;100.00;98460.22;5047809;28;20048;-56
2023/12/10 09:44:55;;;;;;;16.55;2.92;;;;;;;7.46;100.00;98457.09;5048016;28;20055;-53
2023/12/10 09:47:25;;;;;;;18.63;3.45;;;;;;;7.47;100.00;98444.91;5047772;28;20053;-51
2023/12/10 09:49:54;;;;;;;16.95;2.90;;;;;;;7.49;100.00;98445.34;5047556;28;20064;-51
2023/12/10 09:52:23;;;;;;;22.27;5.03;;;;;;;7.52;100.00;98436.28;5048276;28;20099;-53
2023/12/10 09:54:53;;;;;;;18.83;2.90;;;;;;;7.55;100.00;98457.56;5059443;28;20044;-51
2023/12/10 09:57:21;;;;;;;18.48;2.85;;;;;;;7.56;100.00;98455.59;5048427;28;20036;-54
2023/12/10 09:59:49;;;;;;;20.15;2.85;;;;;;;7.57;100.00;98444.19;5048809;28;20080;-53
2023/12/10 10:02:17;;;;;;;11.88;2.60;;;;;;;7.61;100.00;98436.75;5049089;28;20061;-51
2023/12/10 10:04:44;;;;;;;17.90;2.30;;;;;;;7.63;100.00;98430.88;5030561;28;20053;-52
2023/12/10 10:07:14;;;;;;;12.93;2.65;;;;;;;7.66;100.00;98439.16;5039979;28;20056;-52
2023/12/10 10:09:43;;;;;;;16.40;2.65;;;;;;;7.69;100.00;98435.66;5048377;28;20045;-54
2023/12/10 10:12:13;;;;;;;12.25;2.60;;;;;;;7.71;100.00;98433.31;5047956;28;20392;-53
2023/12/10 10:14:57;;;;;;;15.25;2.50;;;;;;;7.72;100.00;98423.88;5043703;28;20633;-51
2023/12/10 10:17:28;;;;;;;13.13;3.40;;;;;;;7.73;100.00;98424.66;5046060;28;20064;-54
2023/12/10 10:19:57;;;;;;;13.47;2.40;;;;;;;7.75;100.00;98428.63;5035253;28;20656;-52
2023/12/10 10:22:27;;;;;;;8.10;2.22;;;;;;;7.83;100.00;98410.97;5045562;28;20462;-51
2023/12/10 10:24:55;;;;;;;9.15;2.05;;;;;;;7.94;100.00;98408.28;5047643;28;20832;-53
2023/12/10 10:27:25;;;;;;;10.45;1.73;;;;;;;7.98;100.00;98415.38;5038593;28;20037;-52
2023/12/10 10:29:54;;;;;;;26.30;4.32;;;;;;;8.05;100.00;98416.63;5045306;28;20053;-49
2023/12/10 10:32:22;;;;;;;4.20;1.17;;;;;;;8.13;100.00;98412.72;5008275;28;21050;-56
2023/12/10 10:34:50;;;;;;;6.22;1.35;;;;;;;8.17;100.00;98408.00;5040583;28;20056;-50
2023/12/10 10:37:18;;;;;;;9.45;1.55;;;;;;;8.22;100.00;98415.91;5046777;28;20048;-47
2023/12/10 10:39:49;;;;;;;14.20;2.17;;;;;;;8.29;100.00;98413.22;5047428;28;20064;-48
2023/12/10 10:42:18;;;;;;;15.48;3.20;;;;;;;8.34;100.00;98410.88;5047351;28;20056;-50
2023/12/10 10:44:46;;;;;;;12.57;1.67;;;;;;;8.40;100.00;98417.59;5047355;28;20071;-49
2023/12/10 10:47:18;;;;;;;7.32;1.75;;;;;;;8.47;100.00;98425.13;5047349;28;20414;-52
2023/12/10 10:49:52;;;;;;;11.40;2.47;;;;;;;8.51;100.00;98420.41;5047167;28;20072;-51
2023/12/10 10:52:42;;;;;;;13.60;4.07;;;;;;;8.54;100.00;98419.63;5042042;28;20104;-48
2023/12/10 10:55:11;;;;;;;5.80;1.40;;;;;;;8.59;100.00;98411.00;5046278;28;20045;-53
2023/12/10 10:57:39;;;;;;;19.83;2.33;;;;;;;8.61;100.00;98405.88;5046192;28;20056;-50
2023/12/10 11:00:18;;;;;;;11.52;2.45;;;;;;;8.63;100.00;98425.56;5046140;28;20076;-53
2023/12/10 11:02:54;;;;;;;12.20;2.05;;;;;;;8.65;100.00;98430.72;5047661;28;20083;-48
2023/12/10 11:05:34;;;;;;;11.07;3.85;;;;;;;8.69;100.00;98424.03;5044521;28;20052;-53
2023/12/10 11:08:04;;;;;;;13.60;2.22;;;;;;;8.73;100.00;98433.13;5031298;28;20045;-52
2023/12/10 11:10:33;;;;;;;17.08;2.85;;;;;;;8.75;100.00;98424.44;5046470;28;20049;-52
2023/12/10 11:13:01;;;;;;;11.93;2.35;;;;;;;8.78;100.00;98424.47;5046621;28;20410;-47
2023/12/10 11:15:30;;;;;;;14.55;2.65;;;;;;;8.80;100.00;98422.09;5046528;28;20529;-50
2023/12/10 11:18:00;;;;;;;18.50;3.17;;;;;;;8.83;100.00;98418.56;5046908;28;20044;-52
2023/12/10 11:20:37;;;;;;;20.55;2.60;;;;;;;8.85;100.00;98402.41;5045873;28;20037;-50
2023/12/10 11:23:07;;;;;;;23.63;4.03;;;;;;;8.86;100.00;98409.50;5036856;28;20056;-49
2023/12/10 11:25:35;;;;;;;18.88;2.35;;;;;;;8.89;100.00;98400.44;5046986;28;20053;-50
2023/12/10 11:28:17;;;;;;;17.92;3.15;;;;;;;8.92;100.00;98404.41;5041998;28;20056;-49
2023/12/10 11:30:46;;;;;;;17.80;3.97;;;;;;;8.95;100.00;98390.59;5044857;28;20129;-47
2023/12/10 11:33:15;;;;;;;11.68;2.88;;;;;;;8.96;100.00;98383.91;5047198;28;20045;-46